Time;durP1;ratioP1;P1;durP2;ratioP2;P2;SDS_P1;SDS_P2;PMS_P1;PMS_P2;Temp;Humidity;BMP_temperature;BMP_pressure;BME280_temperature;BME280_humidity;BME280_pressure;Samples;Min_cycle;Max_cycle;Signal;HPM_P1;HPM_P2
2022/12/06 00:00:22;;;;;;;53.15;26.10;;;;;;;;;;1037107;28;20048;-77
2022/12/06 00:00:52;;;;;;;56.72;23.73;;;;;;;;;;1036997;28;20033;-77
2022/12/06 00:01:25;;;;;;;50.63;21.75;;;;;;;;;;1035763;28;20104;-77
2022/12/06 00:01:55;;;;;;;47.28;23.40;;;;;;;;;;1036935;28;20029;-77
2022/12/06 00:02:26;;;;;;;43.63;21.63;;;;;;;;;;1037330;28;20485;-77
2022/12/06 00:02:56;;;;;;;57.72;21.52;;;;;;;;;;1037276;28;20021;-77
2022/12/06 00:03:27;;;;;;;50.75;22.42;;;;;;;;;;1036628;28;20049;-77
2022/12/06 00:04:02;;;;;;;50.95;22.83;;;;;;;;;;1037681;28;20116;-77
2022/12/06 00:04:33;;;;;;;64.45;26.55;;;;;;;;;;1037691;28;20108;-77
2022/12/06 00:05:03;;;;;;;41.92;21.25;;;;;;;;;;1037154;28;20028;-77
2022/12/06 00:05:34;;;;;;;48.10;22.52;;;;;;;;;;1037378;28;20567;-77
2022/12/06 00:06:06;;;;;;;48.28;22.13;;;;;;;;;;1038116;28;20420;-77
2022/12/06 00:06:38;;;;;;;48.25;22.67;;;;;;;;;;1036795;28;20425;-77
2022/12/06 00:07:10;;;;;;;54.78;25.23;;;;;;;;;;1037262;28;20088;-77
2022/12/06 00:07:40;;;;;;;46.88;20.50;;;;;;;;;;1037058;28;20135;-77
2022/12/06 00:08:11;;;;;;;56.65;24.30;;;;;;;;;;1038113;28;20029;-77
2022/12/06 00:08:42;;;;;;;50.92;23.65;;;;;;;;;;1035270;28;20033;-77
2022/12/06 00:09:33;;;;;;;46.38;22.70;;;;;;;;;;1033232;28;20022;-77
2022/12/06 00:10:04;;;;;;;45.72;21.35;;;;;;;;;;1035607;28;20041;-77
2022/12/06 00:10:35;;;;;;;48.53;21.85;;;;;;;;;;1037169;28;20128;-77
2022/12/06 00:11:07;;;;;;;48.00;21.88;;;;;;;;;;1037239;28;20083;-77
2022/12/06 00:11:38;;;;;;;44.47;21.35;;;;;;;;;;1035297;28;20479;-77
2022/12/06 00:12:08;;;;;;;47.00;22.48;;;;;;;;;;1037315;28;20030;-77
2022/12/06 00:12:39;;;;;;;44.88;21.52;;;;;;;;;;1033418;28;20025;-77
2022/12/06 00:13:09;;;;;;;45.22;21.55;;;;;;;;;;1033309;28;20026;-77
2022/12/06 00:13:40;;;;;;;47.28;22.73;;;;;;;;;;1034629;28;20064;-77
2022/12/06 00:14:11;;;;;;;47.88;21.15;;;;;;;;;;1034645;28;20022;-77
2022/12/06 00:14:41;;;;;;;49.80;22.35;;;;;;;;;;1033191;28;20022;-77
2022/12/06 00:15:12;;;;;;;45.38;21.92;;;;;;;;;;1032760;28;20018;-77
2022/12/06 00:15:43;;;;;;;52.05;22.90;;;;;;;;;;1028987;28;20086;-77
2022/12/06 00:16:14;;;;;;;53.75;23.15;;;;;;;;;;1029023;28;20169;-77
2022/12/06 00:16:45;;;;;;;43.80;21.15;;;;;;;;;;1033139;28;20071;-77
2022/12/06 00:17:16;;;;;;;58.55;24.60;;;;;;;;;;1033648;28;20026;-77
2022/12/06 00:17:46;;;;;;;51.17;23.55;;;;;;;;;;1036367;28;20017;-77
2022/12/06 00:18:17;;;;;;;58.15;23.23;;;;;;;;;;1037281;28;20049;-77
2022/12/06 00:18:48;;;;;;;58.45;24.55;;;;;;;;;;1037603;28;20030;-77
2022/12/06 00:19:20;;;;;;;50.25;25.65;;;;;;;;;;1037088;28;20032;-77
2022/12/06 00:19:51;;;;;;;51.53;24.48;;;;;;;;;;1035072;28;20022;-77
2022/12/06 00:20:21;;;;;;;52.60;23.75;;;;;;;;;;1035326;28;20025;-77
2022/12/06 00:20:52;;;;;;;53.72;23.40;;;;;;;;;;1035710;28;20028;-77
2022/12/06 00:21:24;;;;;;;47.92;23.30;;;;;;;;;;1037340;28;20126;-77
2022/12/06 00:21:54;;;;;;;56.60;22.98;;;;;;;;;;1037082;28;20461;-77
2022/12/06 00:22:25;;;;;;;54.47;22.17;;;;;;;;;;1037042;28;20033;-77
2022/12/06 00:22:56;;;;;;;48.45;23.92;;;;;;;;;;1037190;28;20021;-77
2022/12/06 00:23:26;;;;;;;57.72;22.27;;;;;;;;;;1037338;28;20026;-77
2022/12/06 00:24:01;;;;;;;47.30;22.23;;;;;;;;;;1037096;28;20089;-77
2022/12/06 00:24:33;;;;;;;51.50;22.23;;;;;;;;;;1036784;28;20077;-77
2022/12/06 00:25:03;;;;;;;52.67;21.73;;;;;;;;;;1037125;28;20025;-77
2022/12/06 00:25:35;;;;;;;50.97;23.33;;;;;;;;;;1037880;28;20025;-77
2022/12/06 00:26:06;;;;;;;43.47;20.40;;;;;;;;;;1037433;28;20028;-77
2022/12/06 00:26:37;;;;;;;49.92;23.27;;;;;;;;;;1037252;28;20113;-77
2022/12/06 00:27:08;;;;;;;45.85;21.30;;;;;;;;;;1034978;28;20025;-77
2022/12/06 00:27:39;;;;;;;53.70;22.42;;;;;;;;;;1035095;28;20401;-77
2022/12/06 00:28:09;;;;;;;52.25;22.40;;;;;;;;;;1031294;28;20394;-77
2022/12/06 00:28:40;;;;;;;41.88;21.95;;;;;;;;;;1033843;28;20112;-77
2022/12/06 00:29:12;;;;;;;50.88;24.60;;;;;;;;;;1028542;28;20033;-77
2022/12/06 00:29:42;;;;;;;47.40;25.10;;;;;;;;;;1032346;28;20398;-77
2022/12/06 00:30:13;;;;;;;56.08;23.70;;;;;;;;;;1033111;28;20033;-77
2022/12/06 00:30:44;;;;;;;43.97;20.85;;;;;;;;;;1033533;28;20041;-77
2022/12/06 00:31:15;;;;;;;53.70;24.23;;;;;;;;;;1037409;28;20116;-77
2022/12/06 00:31:46;;;;;;;57.75;25.90;;;;;;;;;;1037158;28;20022;-77
2022/12/06 00:32:17;;;;;;;62.03;26.13;;;;;;;;;;1037734;28;20131;-77
2022/12/06 00:32:47;;;;;;;52.78;25.38;;;;;;;;;;1038053;28;20389;-77
2022/12/06 00:33:18;;;;;;;63.83;25.60;;;;;;;;;;1037171;28;20079;-77
2022/12/06 00:33:49;;;;;;;56.28;24.88;;;;;;;;;;1037194;28;20056;-77
2022/12/06 00:34:20;;;;;;;53.60;23.75;;;;;;;;;;1038287;28;20025;-77
2022/12/06 00:34:50;;;;;;;57.47;25.55;;;;;;;;;;1037363;28;20053;-77
2022/12/06 00:35:21;;;;;;;58.85;25.58;;;;;;;;;;1035498;28;20046;-77
2022/12/06 00:35:55;;;;;;;50.63;24.08;;;;;;;;;;1037343;28;20025;-77
2022/12/06 00:36:27;;;;;;;55.70;25.17;;;;;;;;;;1037160;28;20056;-77
2022/12/06 00:36:58;;;;;;;54.85;25.50;;;;;;;;;;1036206;28;20195;-77
2022/12/06 00:37:28;;;;;;;55.67;28.30;;;;;;;;;;1037544;28;20091;-77
2022/12/06 00:37:59;;;;;;;50.10;25.48;;;;;;;;;;1037254;28;20029;-77
2022/12/06 00:38:30;;;;;;;62.47;27.45;;;;;;;;;;1037276;28;20017;-77
2022/12/06 00:39:18;;;;;;;50.83;24.50;;;;;;;;;;1037324;28;20063;-77
2022/12/06 00:39:49;;;;;;;52.50;23.38;;;;;;;;;;1036866;28;20026;-77
2022/12/06 00:40:19;;;;;;;54.75;23.55;;;;;;;;;;1038571;28;20362;-77
2022/12/06 00:40:50;;;;;;;59.08;26.20;;;;;;;;;;1037226;28;20036;-77
2022/12/06 00:41:22;;;;;;;49.65;24.55;;;;;;;;;;1037018;28;20116;-77
2022/12/06 00:41:54;;;;;;;68.05;27.00;;;;;;;;;;1037161;28;20030;-77
2022/12/06 00:42:24;;;;;;;47.30;26.92;;;;;;;;;;1037103;28;20025;-77
2022/12/06 00:42:55;;;;;;;55.45;28.52;;;;;;;;;;1037116;28;20109;-77
2022/12/06 00:43:26;;;;;;;58.70;25.92;;;;;;;;;;1037035;28;20068;-77
2022/12/06 00:43:56;;;;;;;58.65;28.02;;;;;;;;;;1037452;28;20044;-77
2022/12/06 00:44:27;;;;;;;60.20;26.75;;;;;;;;;;1037675;28;20168;-77
2022/12/06 00:44:58;;;;;;;61.88;28.10;;;;;;;;;;1037858;28;20068;-77
2022/12/06 00:45:28;;;;;;;60.65;28.52;;;;;;;;;;1035898;28;20068;-77
2022/12/06 00:45:59;;;;;;;62.95;26.88;;;;;;;;;;1035847;28;20036;-77
2022/12/06 00:46:30;;;;;;;67.53;28.02;;;;;;;;;;1038370;28;20103;-77
2022/12/06 00:47:01;;;;;;;60.00;29.38;;;;;;;;;;1033824;28;20018;-77
2022/12/06 00:47:31;;;;;;;58.97;25.45;;;;;;;;;;1038169;28;20104;-77
2022/12/06 00:48:02;;;;;;;55.00;30.23;;;;;;;;;;1038121;28;20014;-77
2022/12/06 00:48:33;;;;;;;66.90;28.15;;;;;;;;;;1037724;28;20040;-77
2022/12/06 00:49:04;;;;;;;57.17;27.00;;;;;;;;;;1037864;28;20445;-77
2022/12/06 00:49:35;;;;;;;66.78;29.00;;;;;;;;;;1038020;28;20017;-77
2022/12/06 00:50:06;;;;;;;61.72;26.45;;;;;;;;;;1035516;28;20470;-77
2022/12/06 00:50:36;;;;;;;64.68;29.27;;;;;;;;;;1034652;28;20026;-77
2022/12/06 00:51:07;;;;;;;54.38;25.90;;;;;;;;;;1037851;28;20017;-77
2022/12/06 00:51:38;;;;;;;59.78;27.75;;;;;;;;;;1034345;28;20469;-77
2022/12/06 00:52:08;;;;;;;65.47;28.65;;;;;;;;;;1034064;28;20532;-77
2022/12/06 00:52:39;;;;;;;65.25;28.30;;;;;;;;;;1031857;28;20026;-77
2022/12/06 00:53:10;;;;;;;54.15;24.77;;;;;;;;;;1032015;28;20014;-77
2022/12/06 00:53:40;;;;;;;65.10;29.23;;;;;;;;;;1035820;28;20109;-77
2022/12/06 00:54:12;;;;;;;61.72;29.05;;;;;;;;;;1038028;28;20482;-77
2022/12/06 00:54:43;;;;;;;56.10;27.23;;;;;;;;;;1038121;28;20017;-77
2022/12/06 00:55:13;;;;;;;62.67;28.50;;;;;;;;;;1037829;28;20028;-77
2022/12/06 00:55:44;;;;;;;61.88;30.42;;;;;;;;;;1035999;28;20020;-77
2022/12/06 00:56:15;;;;;;;61.42;30.00;;;;;;;;;;1037841;28;20049;-77
2022/12/06 00:56:46;;;;;;;64.13;28.75;;;;;;;;;;1037980;28;20116;-77
2022/12/06 00:57:16;;;;;;;61.72;26.45;;;;;;;;;;1037739;28;20385;-77
2022/12/06 00:57:47;;;;;;;68.93;26.95;;;;;;;;;;1038335;28;20120;-77
2022/12/06 00:58:17;;;;;;;60.97;26.08;;;;;;;;;;1038014;28;20550;-77
2022/12/06 00:58:48;;;;;;;63.85;27.77;;;;;;;;;;1036989;28;20021;-77
2022/12/06 00:59:19;;;;;;;65.10;26.20;;;;;;;;;;1037746;28;20123;-77
2022/12/06 00:59:49;;;;;;;57.58;24.80;;;;;;;;;;1033687;28;20022;-77
2022/12/06 01:00:20;;;;;;;54.10;24.33;;;;;;;;;;1033463;28;20156;-77
2022/12/06 01:00:51;;;;;;;48.15;25.08;;;;;;;;;;1033157;28;20055;-77
2022/12/06 01:01:23;;;;;;;52.65;26.55;;;;;;;;;;1029689;28;20182;-77
2022/12/06 01:01:53;;;;;;;51.95;24.33;;;;;;;;;;1034007;28;20022;-77
2022/12/06 01:02:24;;;;;;;73.82;28.35;;;;;;;;;;1037284;28;20022;-77
2022/12/06 01:02:56;;;;;;;60.08;28.05;;;;;;;;;;1034645;28;20068;-77
2022/12/06 01:03:26;;;;;;;48.78;23.95;;;;;;;;;;1038502;28;20087;-77
2022/12/06 01:03:58;;;;;;;52.08;25.35;;;;;;;;;;1037857;28;20029;-77
2022/12/06 01:04:28;;;;;;;47.03;22.88;;;;;;;;;;1038180;28;20456;-77
2022/12/06 01:04:59;;;;;;;65.43;26.77;;;;;;;;;;1038106;28;20052;-77
2022/12/06 01:05:30;;;;;;;54.70;24.05;;;;;;;;;;1046348;23;20477;-76
2022/12/06 01:06:02;;;;;;;58.13;25.08;;;;;;;;;;1040255;28;20489;-77
2022/12/06 01:06:34;;;;;;;59.00;26.63;;;;;;;;;;1040474;28;20482;-77
2022/12/06 01:07:05;;;;;;;51.55;24.23;;;;;;;;;;1040119;28;20109;-77
2022/12/06 01:07:35;;;;;;;53.70;24.67;;;;;;;;;;1040112;28;20410;-77
2022/12/06 01:08:06;;;;;;;55.80;23.23;;;;;;;;;;1039855;28;20017;-77
2022/12/06 01:08:37;;;;;;;53.20;24.20;;;;;;;;;;1039860;28;20124;-77
2022/12/06 01:09:09;;;;;;;57.42;25.35;;;;;;;;;;1040176;28;20028;-77
2022/12/06 01:09:39;;;;;;;53.67;23.65;;;;;;;;;;1039786;28;20024;-77
2022/12/06 01:10:10;;;;;;;57.80;23.88;;;;;;;;;;1038198;28;20524;-77
2022/12/06 01:10:41;;;;;;;57.85;23.73;;;;;;;;;;1038016;28;20035;-77
2022/12/06 01:11:12;;;;;;;46.83;24.05;;;;;;;;;;1037814;28;20052;-77
2022/12/06 01:11:43;;;;;;;54.92;25.17;;;;;;;;;;1037438;28;20024;-77
2022/12/06 01:12:14;;;;;;;48.80;21.83;;;;;;;;;;1038199;28;20065;-77
2022/12/06 01:12:44;;;;;;;48.03;22.92;;;;;;;;;;1038227;28;20805;-77
2022/12/06 01:13:15;;;;;;;52.03;22.30;;;;;;;;;;1038141;28;20087;-77
2022/12/06 01:13:45;;;;;;;57.15;25.60;;;;;;;;;;1035862;28;20099;-77
2022/12/06 01:14:16;;;;;;;39.63;19.48;;;;;;;;;;1038093;28;20061;-77
2022/12/06 01:14:46;;;;;;;54.13;23.65;;;;;;;;;;1036680;28;20473;-77
2022/12/06 01:15:17;;;;;;;45.45;20.60;;;;;;;;;;1035806;28;20393;-77
2022/12/06 01:15:47;;;;;;;56.17;23.25;;;;;;;;;;1036477;28;20037;-77
2022/12/06 01:16:25;;;;;;;41.28;22.98;;;;;;;;;;1037407;28;20470;-77
2022/12/06 01:16:56;;;;;;;55.60;22.85;;;;;;;;;;1035568;28;20030;-77
2022/12/06 01:17:26;;;;;;;57.88;24.90;;;;;;;;;;1033164;28;20025;-77
2022/12/06 01:17:57;;;;;;;43.50;23.52;;;;;;;;;;1035135;28;20037;-77
2022/12/06 01:18:28;;;;;;;51.63;23.02;;;;;;;;;;1032437;28;20022;-77
2022/12/06 01:19:00;;;;;;;45.22;21.35;;;;;;;;;;1033798;28;20021;-77
2022/12/06 01:19:30;;;;;;;52.15;23.00;;;;;;;;;;1029663;28;20779;-77
2022/12/06 01:20:01;;;;;;;42.88;22.20;;;;;;;;;;1033365;28;20057;-77
2022/12/06 01:20:33;;;;;;;47.58;21.42;;;;;;;;;;1037841;28;20569;-77
2022/12/06 01:21:04;;;;;;;51.22;23.67;;;;;;;;;;1035520;28;20032;-77
2022/12/06 01:21:35;;;;;;;59.42;24.42;;;;;;;;;;1037277;28;20109;-77
2022/12/06 01:22:06;;;;;;;49.83;23.73;;;;;;;;;;1036099;28;20035;-77
2022/12/06 01:22:36;;;;;;;52.03;23.52;;;;;;;;;;1033882;28;20052;-77
2022/12/06 01:23:07;;;;;;;61.38;24.67;;;;;;;;;;1033737;28;20402;-77
2022/12/06 01:23:38;;;;;;;49.95;23.20;;;;;;;;;;1037818;28;20033;-77
2022/12/06 01:24:08;;;;;;;62.22;26.55;;;;;;;;;;1037812;28;20030;-77
2022/12/06 01:24:39;;;;;;;44.30;22.50;;;;;;;;;;1037165;28;20076;-77
2022/12/06 01:25:09;;;;;;;54.67;25.10;;;;;;;;;;1038004;28;20032;-77
2022/12/06 01:25:50;;;;;;;55.80;25.23;;;;;;;;;;1037977;28;20444;-77
2022/12/06 01:26:23;;;;;;;48.80;23.67;;;;;;;;;;1037698;28;20029;-77
2022/12/06 01:26:53;;;;;;;62.70;25.50;;;;;;;;;;1037857;28;20418;-77
2022/12/06 01:27:24;;;;;;;61.90;27.67;;;;;;;;;;1035723;28;20030;-77
2022/12/06 01:27:54;;;;;;;64.32;27.58;;;;;;;;;;1031846;28;20160;-77
2022/12/06 01:28:25;;;;;;;60.50;25.48;;;;;;;;;;1035862;28;20057;-77
2022/12/06 01:28:56;;;;;;;57.15;25.15;;;;;;;;;;1033648;28;20077;-77
2022/12/06 01:29:27;;;;;;;55.88;27.48;;;;;;;;;;1035815;28;20087;-77
2022/12/06 01:29:57;;;;;;;45.35;24.70;;;;;;;;;;1039680;28;20033;-77
2022/12/06 01:30:28;;;;;;;57.15;28.33;;;;;;;;;;1037791;28;20087;-77
2022/12/06 01:30:59;;;;;;;55.83;25.35;;;;;;;;;;1037192;28;20090;-78
2022/12/06 01:31:30;;;;;;;60.88;24.75;;;;;;;;;;1037976;28;20096;-78
2022/12/06 01:32:00;;;;;;;59.95;24.88;;;;;;;;;;1037196;28;20128;-78
2022/12/06 01:32:31;;;;;;;56.97;25.73;;;;;;;;;;1037516;28;20025;-78
2022/12/06 01:33:01;;;;;;;52.10;26.85;;;;;;;;;;1037024;28;20021;-77
2022/12/06 01:33:32;;;;;;;58.38;27.48;;;;;;;;;;1036932;28;20556;-77
2022/12/06 01:34:02;;;;;;;55.78;25.17;;;;;;;;;;1033819;28;20036;-77
2022/12/06 01:34:33;;;;;;;61.58;27.48;;;;;;;;;;1036335;28;20061;-77
2022/12/06 01:35:04;;;;;;;53.67;25.02;;;;;;;;;;1036700;28;20038;-77
2022/12/06 01:35:38;;;;;;;47.85;24.30;;;;;;;;;;1037039;28;20026;-77
2022/12/06 01:36:15;;;;;;;56.70;25.95;;;;;;;;;;1035197;28;20020;-77
2022/12/06 01:36:45;;;;;;;63.45;27.00;;;;;;;;;;1035520;28;20029;-77
2022/12/06 01:37:16;;;;;;;59.63;25.90;;;;;;;;;;1036193;28;20029;-77
2022/12/06 01:37:46;;;;;;;56.28;26.55;;;;;;;;;;1036775;28;20032;-77
2022/12/06 01:38:17;;;;;;;59.33;25.27;;;;;;;;;;1037782;28;20029;-77
2022/12/06 01:38:49;;;;;;;67.93;27.90;;;;;;;;;;1037736;28;20029;-77
2022/12/06 01:39:20;;;;;;;70.30;28.33;;;;;;;;;;1036788;28;20022;-77
2022/12/06 01:39:50;;;;;;;60.20;24.55;;;;;;;;;;1037331;28;20037;-77
2022/12/06 01:40:21;;;;;;;61.95;28.42;;;;;;;;;;1038181;28;20025;-77
2022/12/06 01:40:52;;;;;;;58.83;27.40;;;;;;;;;;1036680;28;20541;-77
2022/12/06 01:41:23;;;;;;;66.72;26.67;;;;;;;;;;1036749;28;20026;-77
2022/12/06 01:41:54;;;;;;;66.47;27.70;;;;;;;;;;1036903;28;20022;-77
2022/12/06 01:42:25;;;;;;;70.78;29.80;;;;;;;;;;1037039;28;20520;-77
2022/12/06 01:42:55;;;;;;;73.32;31.23;;;;;;;;;;1034440;28;20550;-77
2022/12/06 01:43:30;;;;;;;70.97;28.95;;;;;;;;;;1032078;28;20501;-77
2022/12/06 01:44:01;;;;;;;66.22;29.33;;;;;;;;;;1032739;28;20030;-77
2022/12/06 01:44:41;;;;;;;73.07;30.08;;;;;;;;;;1033984;28;20388;-77
2022/12/06 01:45:12;;;;;;;60.33;28.33;;;;;;;;;;1035964;28;20140;-78
2022/12/06 01:45:43;;;;;;;67.70;30.15;;;;;;;;;;1038793;28;20448;-78
2022/12/06 01:46:16;;;;;;;67.75;31.35;;;;;;;;;;1036570;28;20029;-78
2022/12/06 01:46:47;;;;;;;76.63;33.85;;;;;;;;;;1036310;28;20025;-77
2022/12/06 01:47:19;;;;;;;75.22;33.45;;;;;;;;;;1037074;28;20139;-77
2022/12/06 01:47:50;;;;;;;78.93;35.58;;;;;;;;;;1035035;28;20061;-77
2022/12/06 01:48:22;;;;;;;82.80;37.78;;;;;;;;;;1035626;28;20014;-78
2022/12/06 01:48:57;;;;;;;84.82;34.95;;;;;;;;;;1035655;28;20029;-77
2022/12/06 01:49:31;;;;;;;82.93;34.15;;;;;;;;;;1036691;28;20021;-77
2022/12/06 01:50:05;;;;;;;93.63;34.35;;;;;;;;;;1036485;28;20040;-77
2022/12/06 01:50:38;;;;;;;90.60;36.08;;;;;;;;;;1037084;28;20113;-77
2022/12/06 01:51:10;;;;;;;82.00;36.97;;;;;;;;;;1037577;28;20028;-77
2022/12/06 01:51:49;;;;;;;109.95;43.13;;;;;;;;;;1037659;28;20112;-76
2022/12/06 01:52:22;;;;;;;97.97;46.38;;;;;;;;;;1032491;28;20026;-77
2022/12/06 01:52:53;;;;;;;101.40;41.78;;;;;;;;;;1027457;28;20756;-77
2022/12/06 01:53:24;;;;;;;115.82;49.05;;;;;;;;;;1029818;28;20049;-77
2022/12/06 01:53:55;;;;;;;107.38;44.88;;;;;;;;;;1029838;28;20130;-77
2022/12/06 01:54:25;;;;;;;93.25;43.50;;;;;;;;;;1033210;28;20033;-77
2022/12/06 01:54:58;;;;;;;102.32;47.83;;;;;;;;;;1037647;28;20124;-77
2022/12/06 01:55:32;;;;;;;112.22;48.25;;;;;;;;;;1036196;28;20087;-77
2022/12/06 01:56:03;;;;;;;111.95;49.25;;;;;;;;;;1035966;28;20009;-77
2022/12/06 01:56:34;;;;;;;115.65;48.05;;;;;;;;;;1039048;28;20485;-77
2022/12/06 01:57:08;;;;;;;103.95;48.25;;;;;;;;;;1036981;28;20017;-77
2022/12/06 01:57:38;;;;;;;121.13;54.03;;;;;;;;;;1037708;28;20017;-77
2022/12/06 01:58:14;;;;;;;107.65;52.00;;;;;;;;;;1037079;28;20132;-77
2022/12/06 01:58:45;;;;;;;114.10;51.00;;;;;;;;;;1032312;28;20026;-77
2022/12/06 01:59:16;;;;;;;117.60;51.17;;;;;;;;;;1038060;28;20478;-77
2022/12/06 01:59:47;;;;;;;118.50;49.78;;;;;;;;;;1037811;28;20017;-77
2022/12/06 02:00:18;;;;;;;114.57;49.25;;;;;;;;;;1033650;28;20018;-77
2022/12/06 02:00:49;;;;;;;133.32;54.22;;;;;;;;;;1037135;28;20148;-77
2022/12/06 02:01:21;;;;;;;105.97;49.20;;;;;;;;;;1036782;28;20029;-77
2022/12/06 02:01:52;;;;;;;112.10;47.22;;;;;;;;;;1036588;28;20025;-77
2022/12/06 02:02:23;;;;;;;126.93;50.92;;;;;;;;;;1035898;28;20126;-77
2022/12/06 02:02:57;;;;;;;131.32;52.97;;;;;;;;;;1036157;28;20021;-77
2022/12/06 02:03:30;;;;;;;109.88;48.63;;;;;;;;;;1035065;28;20037;-77
2022/12/06 02:04:01;;;;;;;116.90;49.67;;;;;;;;;;1035019;28;20033;-77
2022/12/06 02:04:32;;;;;;;135.48;54.15;;;;;;;;;;1039360;28;20060;-77
2022/12/06 02:05:03;;;;;;;121.47;50.58;;;;;;;;;;1039298;28;20397;-77
2022/12/06 02:05:35;;;;;;;109.63;50.05;;;;;;;;;;1036766;28;20032;-77
2022/12/06 02:06:07;;;;;;;121.10;50.88;;;;;;;;;;1038119;28;20018;-77
2022/12/06 02:06:38;;;;;;;124.43;51.80;;;;;;;;;;1038425;28;20092;-78
2022/12/06 02:07:10;;;;;;;114.13;50.35;;;;;;;;;;1036032;28;20022;-78
2022/12/06 02:07:41;;;;;;;120.60;54.88;;;;;;;;;;1035831;28;20047;-78
2022/12/06 02:08:12;;;;;;;118.55;52.97;;;;;;;;;;1037030;28;20498;-78
2022/12/06 02:08:43;;;;;;;122.38;50.78;;;;;;;;;;1039544;28;20025;-78
2022/12/06 02:09:15;;;;;;;110.57;49.58;;;;;;;;;;1035977;28;20500;-78
2022/12/06 02:09:46;;;;;;;124.75;47.67;;;;;;;;;;1032792;28;20014;-78
2022/12/06 02:10:17;;;;;;;122.50;51.10;;;;;;;;;;1032444;28;20030;-78
2022/12/06 02:10:48;;;;;;;121.15;52.78;;;;;;;;;;1032833;28;20013;-78
2022/12/06 02:11:18;;;;;;;121.93;50.47;;;;;;;;;;1032708;28;20550;-78
2022/12/06 02:11:49;;;;;;;97.72;46.85;;;;;;;;;;1029639;28;20027;-78
2022/12/06 02:12:20;;;;;;;105.88;50.33;;;;;;;;;;1033714;28;20085;-78
2022/12/06 02:12:53;;;;;;;112.38;48.65;;;;;;;;;;1033301;28;20014;-78
2022/12/06 02:13:27;;;;;;;121.85;51.03;;;;;;;;;;1037513;28;20018;-78
2022/12/06 02:13:58;;;;;;;114.80;51.75;;;;;;;;;;1036140;28;20112;-78
2022/12/06 02:14:31;;;;;;;118.90;54.45;;;;;;;;;;1037234;28;20029;-78
2022/12/06 02:15:02;;;;;;;115.95;53.35;;;;;;;;;;1036260;28;20387;-78
2022/12/06 02:15:54;;;;;;;115.90;50.70;;;;;;;;;;1036829;28;20096;-77
2022/12/06 02:16:40;;;;;;;121.65;49.25;;;;;;;;;;1037556;28;20500;-77
2022/12/06 02:17:23;;;;;;;116.65;48.20;;;;;;;;;;1035767;28;20014;-77
2022/12/06 02:17:58;;;;;;;118.43;48.25;;;;;;;;;;1037252;28;20036;-77
2022/12/06 02:18:43;;;;;;;124.50;49.78;;;;;;;;;;1037100;28;20030;-77
2022/12/06 02:19:32;;;;;;;95.05;46.45;;;;;;;;;;1032977;28;20116;-77
2022/12/06 02:20:17;;;;;;;107.15;45.85;;;;;;;;;;1032753;28;20023;-77
2022/12/06 02:20:57;;;;;;;99.05;44.75;;;;;;;;;;1035856;28;20029;-77
2022/12/06 02:21:31;;;;;;;107.93;44.45;;;;;;;;;;1037052;28;20029;-77
2022/12/06 02:22:04;;;;;;;118.57;49.28;;;;;;;;;;1036380;28;20030;-77
2022/12/06 02:22:41;;;;;;;109.30;49.35;;;;;;;;;;1037151;28;20032;-77
2022/12/06 02:23:37;;;;;;;130.77;50.45;;;;;;;;;;1037760;28;20104;-77
2022/12/06 02:24:21;;;;;;;110.88;41.67;;;;;;;;;;1035774;28;20052;-78
2022/12/06 02:24:58;;;;;;;106.35;44.53;;;;;;;;;;1036011;28;20308;-78
2022/12/06 02:25:42;;;;;;;98.78;42.38;;;;;;;;;;1036159;28;20030;-78
2022/12/06 02:26:20;;;;;;;113.53;45.00;;;;;;;;;;1034541;28;20278;-77
2022/12/06 02:26:56;;;;;;;114.45;45.20;;;;;;;;;;1035582;28;20026;-78
2022/12/06 02:27:43;;;;;;;114.57;47.38;;;;;;;;;;1035515;28;20115;-78
2022/12/06 02:28:25;;;;;;;124.72;48.13;;;;;;;;;;1037095;28;20025;-78
2022/12/06 02:28:59;;;;;;;114.57;49.10;;;;;;;;;;1037037;28;20554;-78
2022/12/06 02:29:58;;;;;;;114.50;47.70;;;;;;;;;;1036254;28;20021;-78
2022/12/06 02:30:35;;;;;;;104.18;45.28;;;;;;;;;;1036143;28;20026;-78
2022/12/06 02:31:11;;;;;;;111.97;47.38;;;;;;;;;;1036553;28;20041;-78
2022/12/06 02:31:45;;;;;;;122.93;51.30;;;;;;;;;;1036101;28;20030;-78
2022/12/06 02:32:42;;;;;;;117.80;51.63;;;;;;;;;;1035386;28;20119;-78
2022/12/06 02:33:22;;;;;;;116.72;49.47;;;;;;;;;;1034313;28;20448;-78
2022/12/06 02:33:59;;;;;;;132.32;53.72;;;;;;;;;;1036907;28;20036;-78
2022/12/06 02:34:36;;;;;;;126.70;53.92;;;;;;;;;;1037569;28;20040;-78
2022/12/06 02:35:25;;;;;;;121.18;52.00;;;;;;;;;;1036949;28;20599;-77
2022/12/06 02:36:14;;;;;;;117.28;50.95;;;;;;;;;;1036264;28;20873;-77
2022/12/06 02:37:02;;;;;;;135.80;50.17;;;;;;;;;;1040180;28;20028;-77
2022/12/06 02:37:36;;;;;;;113.25;50.70;;;;;;;;;;1040542;28;20512;-77
2022/12/06 02:38:09;;;;;;;130.93;51.58;;;;;;;;;;1036271;28;20026;-77
2022/12/06 02:38:48;;;;;;;122.53;50.78;;;;;;;;;;1035062;28;20061;-77
2022/12/06 02:39:42;;;;;;;111.97;48.58;;;;;;;;;;1035392;28;20093;-77
2022/12/06 02:40:19;;;;;;;126.03;50.45;;;;;;;;;;1030177;28;20038;-77
2022/12/06 02:40:54;;;;;;;147.25;53.45;;;;;;;;;;1037115;28;20041;-77
2022/12/06 02:41:28;;;;;;;119.28;54.60;;;;;;;;;;1036353;28;20405;-77
2022/12/06 02:42:01;;;;;;;116.20;53.33;;;;;;;;;;1029045;28;20569;-77
2022/12/06 02:42:43;;;;;;;121.72;51.17;;;;;;;;;;1035052;28;20033;-77
2022/12/06 02:43:16;;;;;;;120.05;51.95;;;;;;;;;;1030803;28;20061;-77
2022/12/06 02:43:50;;;;;;;116.70;49.92;;;;;;;;;;1033611;28;20526;-77
2022/12/06 02:44:27;;;;;;;123.35;52.85;;;;;;;;;;1036111;28;20026;-77
2022/12/06 02:45:00;;;;;;;132.43;54.08;;;;;;;;;;1036430;28;20030;-77
2022/12/06 02:45:36;;;;;;;123.07;57.03;;;;;;;;;;1031559;28;20019;-77
2022/12/06 02:46:08;;;;;;;132.63;56.10;;;;;;;;;;1034160;28;20025;-76
2022/12/06 02:46:40;;;;;;;123.18;53.08;;;;;;;;;;1035900;28;20073;-77
2022/12/06 02:47:12;;;;;;;121.22;50.67;;;;;;;;;;1035975;28;20036;-77
2022/12/06 02:47:43;;;;;;;126.43;54.97;;;;;;;;;;1034968;28;20261;-78
2022/12/06 02:48:14;;;;;;;113.90;50.65;;;;;;;;;;1036543;28;20104;-77
2022/12/06 02:48:46;;;;;;;106.68;46.55;;;;;;;;;;1034307;28;20025;-77
2022/12/06 02:49:17;;;;;;;124.45;55.45;;;;;;;;;;1037877;28;20405;-77
2022/12/06 02:49:53;;;;;;;135.57;55.97;;;;;;;;;;1035002;28;20026;-77
2022/12/06 02:50:28;;;;;;;120.70;48.15;;;;;;;;;;1034168;28;20057;-77
2022/12/06 02:51:01;;;;;;;94.13;38.25;;;;;;;;;;1035301;28;20048;-78
2022/12/06 02:51:33;;;;;;;127.03;51.10;;;;;;;;;;1034511;28;20034;-78
2022/12/06 02:52:04;;;;;;;121.88;49.88;;;;;;;;;;1036125;28;20183;-78
2022/12/06 02:52:40;;;;;;;120.88;54.45;;;;;;;;;;1034903;28;20025;-78
2022/12/06 02:53:13;;;;;;;95.28;45.05;;;;;;;;;;1036653;28;20031;-78
2022/12/06 02:53:48;;;;;;;132.85;57.58;;;;;;;;;;1033683;28;20021;-78
2022/12/06 02:54:20;;;;;;;128.88;55.22;;;;;;;;;;1033030;28;20039;-79
2022/12/06 02:54:53;;;;;;;125.90;57.47;;;;;;;;;;1038048;28;20155;-79
2022/12/06 02:55:25;;;;;;;129.75;59.60;;;;;;;;;;1033280;28;20030;-78
2022/12/06 02:55:56;;;;;;;128.60;60.53;;;;;;;;;;1027803;28;20574;-79
2022/12/06 02:56:27;;;;;;;143.52;62.08;;;;;;;;;;1031680;28;20027;-79
2022/12/06 02:56:57;;;;;;;156.18;74.50;;;;;;;;;;1031037;28;20026;-79
2022/12/06 02:57:43;;;;;;;133.50;62.60;;;;;;;;;;1028911;28;20042;-79
2022/12/06 02:58:14;;;;;;;140.07;57.78;;;;;;;;;;1033449;28;20377;-78
2022/12/06 02:58:45;;;;;;;140.07;59.42;;;;;;;;;;1033751;28;20065;-76
2022/12/06 02:59:16;;;;;;;131.02;53.78;;;;;;;;;;1034988;28;20086;-77
2022/12/06 02:59:50;;;;;;;129.65;59.63;;;;;;;;;;1033334;28;20096;-76
2022/12/06 03:00:40;;;;;;;128.13;57.13;;;;;;;;;;1031388;28;20018;-77
2022/12/06 03:01:19;;;;;;;124.13;53.75;;;;;;;;;;1032688;28;20028;-77
2022/12/06 03:01:55;;;;;;;79.95;32.78;;;;;;;;;;1030202;28;21150;-78
2022/12/06 03:02:25;;;;;;;93.47;44.35;;;;;;;;;;1028068;28;20037;-78
2022/12/06 03:03:11;;;;;;;97.15;43.90;;;;;;;;;;1027907;28;20408;-78
2022/12/06 03:03:44;;;;;;;88.85;44.00;;;;;;;;;;1030069;28;20022;-78
2022/12/06 03:04:33;;;;;;;102.53;43.10;;;;;;;;;;1033937;28;20034;-78
2022/12/06 03:05:17;;;;;;;79.10;38.90;;;;;;;;;;1036048;28;20087;-78
2022/12/06 03:06:00;;;;;;;91.25;37.45;;;;;;;;;;1033485;28;20034;-78
2022/12/06 03:06:49;;;;;;;99.07;42.67;;;;;;;;;;1034363;28;20034;-78
2022/12/06 03:07:38;;;;;;;76.53;33.92;;;;;;;;;;1036404;28;20507;-78
2022/12/06 03:08:13;;;;;;;78.30;37.30;;;;;;;;;;1032795;28;20424;-78
2022/12/06 03:08:53;;;;;;;64.07;28.08;;;;;;;;;;1034320;28;20068;-78
2022/12/06 03:09:36;;;;;;;64.78;30.77;;;;;;;;;;1037220;28;20108;-77
2022/12/06 03:10:12;;;;;;;61.38;26.15;;;;;;;;;;1035881;28;20647;-77
2022/12/06 03:10:49;;;;;;;58.17;27.38;;;;;;;;;;1034029;28;21023;-77
2022/12/06 03:11:19;;;;;;;76.93;32.00;;;;;;;;;;1036746;28;20505;-78
2022/12/06 03:12:10;;;;;;;72.40;29.27;;;;;;;;;;1032349;28;20030;-77
2022/12/06 03:12:44;;;;;;;58.22;28.38;;;;;;;;;;1036965;28;20053;-77